sensor_id;sensor_type;location;lat;lon;timestamp;P1;durP1;ratioP1;P2;durP2;ratioP2
359;SDS011;168;48.872;9.226;2023-12-22T00:00:54;3.63;;;1.80;;
359;SDS011;168;48.872;9.226;2023-12-22T00:03:21;4.93;;;1.90;;
359;SDS011;168;48.872;9.226;2023-12-22T00:05:49;2.90;;;1.50;;
359;SDS011;168;48.872;9.226;2023-12-22T00:08:16;3.97;;;2.00;;
359;SDS011;168;48.872;9.226;2023-12-22T00:10:45;3.03;;;1.47;;
359;SDS011;168;48.872;9.226;2023-12-22T00:13:12;4.10;;;1.43;;
359;SDS011;168;48.872;9.226;2023-12-22T00:15:39;3.50;;;1.30;;
359;SDS011;168;48.872;9.226;2023-12-22T00:18:08;3.30;;;1.70;;
359;SDS011;168;48.872;9.226;2023-12-22T00:20:35;2.50;;;1.10;;
359;SDS011;168;48.872;9.226;2023-12-22T00:23:03;3.37;;;1.27;;
359;SDS011;168;48.872;9.226;2023-12-22T00:25:30;4.03;;;1.40;;
359;SDS011;168;48.872;9.226;2023-12-22T00:27:59;3.90;;;1.70;;
359;SDS011;168;48.872;9.226;2023-12-22T00:30:26;4.00;;;1.40;;
359;SDS011;168;48.872;9.226;2023-12-22T00:32:53;6.30;;;1.87;;
359;SDS011;168;48.872;9.226;2023-12-22T00:35:21;7.73;;;2.20;;
359;SDS011;168;48.872;9.226;2023-12-22T00:37:48;5.73;;;2.23;;
359;SDS011;168;48.872;9.226;2023-12-22T00:40:15;6.10;;;2.67;;
359;SDS011;168;48.872;9.226;2023-12-22T00:42:43;2.83;;;2.00;;
359;SDS011;168;48.872;9.226;2023-12-22T00:45:11;1.80;;;1.00;;
359;SDS011;168;48.872;9.226;2023-12-22T00:47:39;3.30;;;1.37;;
359;SDS011;168;48.872;9.226;2023-12-22T00:50:06;2.40;;;1.60;;
359;SDS011;168;48.872;9.226;2023-12-22T00:52:34;2.20;;;1.20;;
359;SDS011;168;48.872;9.226;2023-12-22T00:55:02;2.30;;;1.70;;
359;SDS011;168;48.872;9.226;2023-12-22T00:57:29;2.30;;;1.77;;
359;SDS011;168;48.872;9.226;2023-12-22T00:59:57;2.13;;;1.43;;
359;SDS011;168;48.872;9.226;2023-12-22T01:02:25;3.90;;;2.03;;
359;SDS011;168;48.872;9.226;2023-12-22T01:04:53;4.13;;;2.30;;
359;SDS011;168;48.872;9.226;2023-12-22T01:07:20;3.50;;;2.03;;
359;SDS011;168;48.872;9.226;2023-12-22T01:09:47;3.33;;;1.97;;
359;SDS011;168;48.872;9.226;2023-12-22T01:12:15;2.90;;;2.10;;
359;SDS011;168;48.872;9.226;2023-12-22T01:14:42;3.27;;;1.80;;
359;SDS011;168;48.872;9.226;2023-12-22T01:17:10;3.03;;;1.83;;
359;SDS011;168;48.872;9.226;2023-12-22T01:19:39;3.00;;;1.67;;
359;SDS011;168;48.872;9.226;2023-12-22T01:22:06;4.63;;;1.60;;
359;SDS011;168;48.872;9.226;2023-12-22T01:24:34;5.33;;;2.50;;
359;SDS011;168;48.872;9.226;2023-12-22T01:27:05;6.10;;;2.33;;
359;SDS011;168;48.872;9.226;2023-12-22T01:29:32;4.70;;;2.57;;
359;SDS011;168;48.872;9.226;2023-12-22T01:31:59;6.23;;;2.30;;
359;SDS011;168;48.872;9.226;2023-12-22T01:34:27;5.67;;;2.37;;
359;SDS011;168;48.872;9.226;2023-12-22T01:36:55;8.07;;;2.33;;
359;SDS011;168;48.872;9.226;2023-12-22T01:39:23;5.97;;;2.70;;
359;SDS011;168;48.872;9.226;2023-12-22T01:41:50;6.83;;;2.43;;
359;SDS011;168;48.872;9.226;2023-12-22T01:44:17;7.33;;;1.93;;
359;SDS011;168;48.872;9.226;2023-12-22T01:46:45;5.20;;;1.90;;
359;SDS011;168;48.872;9.226;2023-12-22T01:49:13;3.63;;;1.80;;
359;SDS011;168;48.872;9.226;2023-12-22T01:51:41;3.30;;;1.90;;
359;SDS011;168;48.872;9.226;2023-12-22T01:54:11;4.07;;;1.57;;
359;SDS011;168;48.872;9.226;2023-12-22T01:56:40;6.80;;;2.10;;
359;SDS011;168;48.872;9.226;2023-12-22T01:59:08;4.80;;;1.90;;
359;SDS011;168;48.872;9.226;2023-12-22T02:01:36;3.80;;;1.40;;
359;SDS011;168;48.872;9.226;2023-12-22T02:04:04;4.60;;;1.43;;
359;SDS011;168;48.872;9.226;2023-12-22T02:06:32;3.40;;;1.30;;
359;SDS011;168;48.872;9.226;2023-12-22T02:09:02;4.17;;;1.23;;
359;SDS011;168;48.872;9.226;2023-12-22T02:11:32;2.80;;;1.20;;
359;SDS011;168;48.872;9.226;2023-12-22T02:13:59;2.50;;;1.07;;
359;SDS011;168;48.872;9.226;2023-12-22T02:16:29;2.97;;;1.53;;
359;SDS011;168;48.872;9.226;2023-12-22T02:19:11;4.20;;;1.00;;
359;SDS011;168;48.872;9.226;2023-12-22T02:24:33;2.60;;;1.10;;
359;SDS011;168;48.872;9.226;2023-12-22T02:27:03;2.30;;;0.83;;
359;SDS011;168;48.872;9.226;2023-12-22T02:29:32;3.60;;;1.70;;
359;SDS011;168;48.872;9.226;2023-12-22T02:32:06;2.90;;;1.00;;
359;SDS011;168;48.872;9.226;2023-12-22T02:34:36;2.77;;;0.87;;
359;SDS011;168;48.872;9.226;2023-12-22T02:37:13;4.27;;;1.63;;
359;SDS011;168;48.872;9.226;2023-12-22T02:39:43;3.00;;;0.87;;
359;SDS011;168;48.872;9.226;2023-12-22T02:42:13;6.50;;;1.20;;
359;SDS011;168;48.872;9.226;2023-12-22T02:44:40;3.20;;;1.17;;
359;SDS011;168;48.872;9.226;2023-12-22T02:47:08;4.97;;;1.17;;
359;SDS011;168;48.872;9.226;2023-12-22T02:49:35;3.83;;;1.60;;
359;SDS011;168;48.872;9.226;2023-12-22T02:52:05;2.27;;;1.00;;
359;SDS011;168;48.872;9.226;2023-12-22T02:54:32;6.03;;;2.60;;
359;SDS011;168;48.872;9.226;2023-12-22T02:57:01;4.00;;;1.50;;
359;SDS011;168;48.872;9.226;2023-12-22T02:59:29;3.53;;;1.60;;
359;SDS011;168;48.872;9.226;2023-12-22T03:01:56;2.70;;;1.20;;
359;SDS011;168;48.872;9.226;2023-12-22T03:04:23;4.87;;;1.53;;
359;SDS011;168;48.872;9.226;2023-12-22T03:06:53;2.67;;;1.27;;
359;SDS011;168;48.872;9.226;2023-12-22T03:09:20;4.87;;;1.53;;
359;SDS011;168;48.872;9.226;2023-12-22T03:11:48;5.63;;;1.53;;
359;SDS011;168;48.872;9.226;2023-12-22T03:14:23;3.97;;;1.60;;
359;SDS011;168;48.872;9.226;2023-12-22T03:16:50;5.70;;;1.50;;
359;SDS011;168;48.872;9.226;2023-12-22T03:19:18;4.87;;;1.60;;
359;SDS011;168;48.872;9.226;2023-12-22T03:21:45;4.03;;;1.60;;
359;SDS011;168;48.872;9.226;2023-12-22T03:24:12;3.80;;;1.27;;
359;SDS011;168;48.872;9.226;2023-12-22T03:26:40;7.20;;;2.30;;
359;SDS011;168;48.872;9.226;2023-12-22T03:29:07;3.10;;;1.53;;
359;SDS011;168;48.872;9.226;2023-12-22T03:31:36;21.20;;;2.50;;
359;SDS011;168;48.872;9.226;2023-12-22T03:34:03;9.47;;;2.20;;
359;SDS011;168;48.872;9.226;2023-12-22T03:36:30;3.07;;;1.40;;
359;SDS011;168;48.872;9.226;2023-12-22T03:38:58;4.53;;;1.00;;
359;SDS011;168;48.872;9.226;2023-12-22T03:41:25;2.70;;;1.27;;
359;SDS011;168;48.872;9.226;2023-12-22T03:43:54;3.10;;;1.10;;
359;SDS011;168;48.872;9.226;2023-12-22T03:46:22;5.20;;;1.60;;
359;SDS011;168;48.872;9.226;2023-12-22T03:48:50;3.87;;;1.50;;
359;SDS011;168;48.872;9.226;2023-12-22T03:51:18;3.73;;;1.63;;
359;SDS011;168;48.872;9.226;2023-12-22T03:53:45;4.87;;;1.83;;
359;SDS011;168;48.872;9.226;2023-12-22T03:56:13;3.43;;;1.37;;
359;SDS011;168;48.872;9.226;2023-12-22T03:58:40;5.97;;;2.20;;
359;SDS011;168;48.872;9.226;2023-12-22T04:01:07;4.83;;;1.80;;
359;SDS011;168;48.872;9.226;2023-12-22T04:03:35;3.47;;;1.03;;
359;SDS011;168;48.872;9.226;2023-12-22T04:06:04;3.20;;;1.43;;
359;SDS011;168;48.872;9.226;2023-12-22T04:08:31;2.77;;;1.10;;
359;SDS011;168;48.872;9.226;2023-12-22T04:10:59;3.30;;;1.10;;
359;SDS011;168;48.872;9.226;2023-12-22T04:13:26;3.10;;;1.30;;
359;SDS011;168;48.872;9.226;2023-12-22T04:15:53;2.80;;;1.17;;
359;SDS011;168;48.872;9.226;2023-12-22T04:18:21;3.30;;;1.20;;
359;SDS011;168;48.872;9.226;2023-12-22T04:20:48;2.87;;;1.70;;
359;SDS011;168;48.872;9.226;2023-12-22T04:23:20;4.90;;;2.00;;
359;SDS011;168;48.872;9.226;2023-12-22T04:25:48;4.63;;;1.67;;
359;SDS011;168;48.872;9.226;2023-12-22T04:28:15;7.00;;;2.63;;
359;SDS011;168;48.872;9.226;2023-12-22T04:30:44;4.30;;;1.80;;
359;SDS011;168;48.872;9.226;2023-12-22T04:33:11;5.10;;;2.03;;
359;SDS011;168;48.872;9.226;2023-12-22T04:35:38;6.50;;;1.60;;
359;SDS011;168;48.872;9.226;2023-12-22T04:38:06;5.83;;;2.00;;
359;SDS011;168;48.872;9.226;2023-12-22T04:40:34;4.97;;;1.73;;
359;SDS011;168;48.872;9.226;2023-12-22T04:43:02;5.53;;;1.60;;
359;SDS011;168;48.872;9.226;2023-12-22T04:45:30;3.30;;;1.67;;
359;SDS011;168;48.872;9.226;2023-12-22T04:48:00;6.53;;;2.00;;
359;SDS011;168;48.872;9.226;2023-12-22T04:50:27;5.43;;;1.90;;
359;SDS011;168;48.872;9.226;2023-12-22T04:52:55;2.80;;;1.30;;
359;SDS011;168;48.872;9.226;2023-12-22T04:55:22;2.80;;;1.67;;
359;SDS011;168;48.872;9.226;2023-12-22T04:57:51;5.23;;;1.50;;
359;SDS011;168;48.872;9.226;2023-12-22T05:00:18;2.60;;;1.27;;
359;SDS011;168;48.872;9.226;2023-12-22T05:02:46;1.97;;;1.43;;
359;SDS011;168;48.872;9.226;2023-12-22T05:05:13;4.37;;;1.53;;
359;SDS011;168;48.872;9.226;2023-12-22T05:07:40;10.70;;;2.30;;
359;SDS011;168;48.872;9.226;2023-12-22T05:10:08;5.00;;;1.60;;
359;SDS011;168;48.872;9.226;2023-12-22T05:12:35;6.10;;;2.00;;
359;SDS011;168;48.872;9.226;2023-12-22T05:15:04;4.47;;;1.60;;
359;SDS011;168;48.872;9.226;2023-12-22T05:17:32;4.30;;;1.60;;
359;SDS011;168;48.872;9.226;2023-12-22T05:20:00;13.00;;;2.60;;
359;SDS011;168;48.872;9.226;2023-12-22T05:22:28;6.40;;;2.13;;
359;SDS011;168;48.872;9.226;2023-12-22T05:24:57;5.03;;;2.00;;
359;SDS011;168;48.872;9.226;2023-12-22T05:27:25;7.47;;;2.33;;
359;SDS011;168;48.872;9.226;2023-12-22T05:29:53;4.43;;;1.70;;
359;SDS011;168;48.872;9.226;2023-12-22T05:32:22;4.83;;;2.37;;
359;SDS011;168;48.872;9.226;2023-12-22T05:34:49;5.70;;;2.30;;
359;SDS011;168;48.872;9.226;2023-12-22T05:37:16;5.80;;;2.20;;
359;SDS011;168;48.872;9.226;2023-12-22T05:39:43;8.10;;;2.57;;
359;SDS011;168;48.872;9.226;2023-12-22T05:42:11;9.67;;;2.77;;
359;SDS011;168;48.872;9.226;2023-12-22T05:44:38;6.90;;;2.80;;
359;SDS011;168;48.872;9.226;2023-12-22T05:47:06;7.20;;;2.20;;
359;SDS011;168;48.872;9.226;2023-12-22T05:49:37;8.50;;;2.00;;
359;SDS011;168;48.872;9.226;2023-12-22T05:52:06;8.60;;;2.43;;
359;SDS011;168;48.872;9.226;2023-12-22T05:54:37;6.37;;;2.20;;
359;SDS011;168;48.872;9.226;2023-12-22T05:57:11;10.30;;;2.50;;
359;SDS011;168;48.872;9.226;2023-12-22T05:59:42;6.30;;;2.23;;
359;SDS011;168;48.872;9.226;2023-12-22T06:02:09;4.77;;;1.90;;
359;SDS011;168;48.872;9.226;2023-12-22T06:04:38;7.30;;;2.50;;
359;SDS011;168;48.872;9.226;2023-12-22T06:07:07;9.23;;;2.93;;
359;SDS011;168;48.872;9.226;2023-12-22T06:09:34;8.37;;;2.60;;
359;SDS011;168;48.872;9.226;2023-12-22T06:12:01;6.50;;;2.17;;
359;SDS011;168;48.872;9.226;2023-12-22T06:14:30;5.57;;;2.60;;
359;SDS011;168;48.872;9.226;2023-12-22T06:16:58;7.07;;;2.30;;
359;SDS011;168;48.872;9.226;2023-12-22T06:19:25;6.40;;;2.10;;
359;SDS011;168;48.872;9.226;2023-12-22T06:21:55;6.63;;;1.90;;
359;SDS011;168;48.872;9.226;2023-12-22T06:24:23;6.20;;;2.67;;
359;SDS011;168;48.872;9.226;2023-12-22T06:26:50;7.17;;;2.27;;
359;SDS011;168;48.872;9.226;2023-12-22T06:29:18;5.70;;;2.20;;
359;SDS011;168;48.872;9.226;2023-12-22T06:31:45;12.47;;;3.00;;
359;SDS011;168;48.872;9.226;2023-12-22T06:34:16;6.47;;;2.20;;
359;SDS011;168;48.872;9.226;2023-12-22T06:36:43;7.90;;;2.80;;
359;SDS011;168;48.872;9.226;2023-12-22T06:39:12;6.47;;;2.27;;
359;SDS011;168;48.872;9.226;2023-12-22T06:41:39;4.80;;;2.00;;
359;SDS011;168;48.872;9.226;2023-12-22T06:44:07;5.50;;;2.30;;
359;SDS011;168;48.872;9.226;2023-12-22T06:46:36;9.70;;;3.00;;
359;SDS011;168;48.872;9.226;2023-12-22T06:49:03;8.07;;;2.80;;
359;SDS011;168;48.872;9.226;2023-12-22T06:51:31;8.23;;;1.90;;
359;SDS011;168;48.872;9.226;2023-12-22T06:54:00;4.67;;;2.20;;
359;SDS011;168;48.872;9.226;2023-12-22T06:56:30;6.13;;;2.00;;
359;SDS011;168;48.872;9.226;2023-12-22T06:59:00;7.07;;;2.10;;
359;SDS011;168;48.872;9.226;2023-12-22T07:01:28;4.60;;;2.10;;
359;SDS011;168;48.872;9.226;2023-12-22T07:04:01;4.13;;;1.90;;
359;SDS011;168;48.872;9.226;2023-12-22T07:06:30;6.77;;;2.50;;
359;SDS011;168;48.872;9.226;2023-12-22T07:09:27;8.30;;;2.47;;
359;SDS011;168;48.872;9.226;2023-12-22T07:11:56;7.00;;;1.90;;
359;SDS011;168;48.872;9.226;2023-12-22T07:14:24;9.53;;;2.77;;
359;SDS011;168;48.872;9.226;2023-12-22T07:16:54;5.23;;;1.93;;
359;SDS011;168;48.872;9.226;2023-12-22T07:19:57;9.20;;;2.20;;
359;SDS011;168;48.872;9.226;2023-12-22T07:22:24;6.27;;;2.10;;
359;SDS011;168;48.872;9.226;2023-12-22T07:24:52;7.37;;;2.43;;
359;SDS011;168;48.872;9.226;2023-12-22T07:27:22;4.67;;;2.00;;
359;SDS011;168;48.872;9.226;2023-12-22T07:29:50;9.20;;;3.00;;
359;SDS011;168;48.872;9.226;2023-12-22T07:32:18;9.17;;;2.50;;
359;SDS011;168;48.872;9.226;2023-12-22T07:34:46;5.40;;;2.10;;
359;SDS011;168;48.872;9.226;2023-12-22T07:37:13;7.57;;;2.10;;
359;SDS011;168;48.872;9.226;2023-12-22T07:39:40;5.90;;;2.03;;
359;SDS011;168;48.872;9.226;2023-12-22T07:42:10;7.23;;;2.23;;
359;SDS011;168;48.872;9.226;2023-12-22T07:44:39;6.40;;;2.23;;
359;SDS011;168;48.872;9.226;2023-12-22T07:47:12;14.50;;;9.33;;
359;SDS011;168;48.872;9.226;2023-12-22T07:49:40;5.90;;;2.33;;
359;SDS011;168;48.872;9.226;2023-12-22T07:52:07;5.73;;;2.13;;
359;SDS011;168;48.872;9.226;2023-12-22T07:54:35;8.70;;;1.90;;
359;SDS011;168;48.872;9.226;2023-12-22T08:00:08;4.87;;;1.90;;
359;SDS011;168;48.872;9.226;2023-12-22T08:02:37;5.57;;;1.80;;
359;SDS011;168;48.872;9.226;2023-12-22T08:05:34;5.73;;;1.77;;
359;SDS011;168;48.872;9.226;2023-12-22T08:08:01;7.03;;;2.10;;
359;SDS011;168;48.872;9.226;2023-12-22T08:10:38;7.50;;;2.97;;
359;SDS011;168;48.872;9.226;2023-12-22T08:13:15;5.57;;;1.77;;
359;SDS011;168;48.872;9.226;2023-12-22T08:15:45;7.07;;;2.80;;
359;SDS011;168;48.872;9.226;2023-12-22T08:18:12;9.30;;;2.30;;
359;SDS011;168;48.872;9.226;2023-12-22T08:20:41;9.97;;;3.70;;
359;SDS011;168;48.872;9.226;2023-12-22T08:23:08;10.60;;;2.80;;
359;SDS011;168;48.872;9.226;2023-12-22T08:25:37;7.47;;;3.17;;
359;SDS011;168;48.872;9.226;2023-12-22T08:28:06;11.60;;;3.07;;
359;SDS011;168;48.872;9.226;2023-12-22T08:30:34;7.30;;;3.20;;
359;SDS011;168;48.872;9.226;2023-12-22T08:33:03;14.53;;;3.67;;
359;SDS011;168;48.872;9.226;2023-12-22T08:35:31;9.87;;;3.07;;
359;SDS011;168;48.872;9.226;2023-12-22T08:37:58;15.00;;;4.33;;
359;SDS011;168;48.872;9.226;2023-12-22T08:40:25;10.30;;;4.30;;
359;SDS011;168;48.872;9.226;2023-12-22T08:42:53;13.20;;;3.60;;
359;SDS011;168;48.872;9.226;2023-12-22T08:45:25;10.57;;;3.77;;
359;SDS011;168;48.872;9.226;2023-12-22T08:47:54;9.30;;;4.17;;
359;SDS011;168;48.872;9.226;2023-12-22T08:50:23;15.20;;;5.00;;
359;SDS011;168;48.872;9.226;2023-12-22T08:52:51;8.93;;;3.97;;
359;SDS011;168;48.872;9.226;2023-12-22T08:55:18;11.77;;;3.90;;
359;SDS011;168;48.872;9.226;2023-12-22T08:57:46;23.27;;;5.90;;
359;SDS011;168;48.872;9.226;2023-12-22T09:00:14;16.10;;;4.40;;
359;SDS011;168;48.872;9.226;2023-12-22T09:02:41;11.20;;;3.97;;
359;SDS011;168;48.872;9.226;2023-12-22T09:05:10;11.73;;;6.10;;
359;SDS011;168;48.872;9.226;2023-12-22T09:07:38;20.33;;;4.93;;
359;SDS011;168;48.872;9.226;2023-12-22T09:10:06;11.33;;;4.70;;
359;SDS011;168;48.872;9.226;2023-12-22T09:12:33;11.30;;;3.87;;
359;SDS011;168;48.872;9.226;2023-12-22T09:15:01;15.17;;;3.53;;
359;SDS011;168;48.872;9.226;2023-12-22T09:17:29;13.63;;;3.87;;
359;SDS011;168;48.872;9.226;2023-12-22T09:19:56;15.03;;;4.57;;
359;SDS011;168;48.872;9.226;2023-12-22T09:22:24;12.40;;;3.20;;
359;SDS011;168;48.872;9.226;2023-12-22T09:24:54;14.83;;;3.47;;
359;SDS011;168;48.872;9.226;2023-12-22T09:27:22;13.93;;;3.17;;
359;SDS011;168;48.872;9.226;2023-12-22T09:29:49;11.20;;;3.40;;
359;SDS011;168;48.872;9.226;2023-12-22T09:32:16;9.40;;;3.50;;
359;SDS011;168;48.872;9.226;2023-12-22T09:34:44;12.33;;;4.13;;
359;SDS011;168;48.872;9.226;2023-12-22T09:37:11;7.60;;;2.77;;
359;SDS011;168;48.872;9.226;2023-12-22T09:39:39;15.10;;;4.00;;
359;SDS011;168;48.872;9.226;2023-12-22T09:42:07;9.80;;;3.43;;
359;SDS011;168;48.872;9.226;2023-12-22T09:44:35;12.43;;;3.63;;
359;SDS011;168;48.872;9.226;2023-12-22T09:47:05;5.50;;;2.50;;
359;SDS011;168;48.872;9.226;2023-12-22T09:49:34;13.73;;;4.13;;
359;SDS011;168;48.872;9.226;2023-12-22T09:52:02;10.40;;;4.37;;
359;SDS011;168;48.872;9.226;2023-12-22T09:54:31;7.17;;;2.60;;
359;SDS011;168;48.872;9.226;2023-12-22T09:56:59;7.87;;;3.23;;
359;SDS011;168;48.872;9.226;2023-12-22T09:59:29;8.10;;;3.03;;
359;SDS011;168;48.872;9.226;2023-12-22T10:01:58;12.10;;;2.83;;
359;SDS011;168;48.872;9.226;2023-12-22T10:04:28;12.30;;;3.53;;
359;SDS011;168;48.872;9.226;2023-12-22T10:06:56;16.20;;;4.40;;
359;SDS011;168;48.872;9.226;2023-12-22T10:09:26;10.77;;;3.70;;
359;SDS011;168;48.872;9.226;2023-12-22T10:11:58;11.20;;;3.23;;
359;SDS011;168;48.872;9.226;2023-12-22T10:14:34;15.63;;;3.20;;
359;SDS011;168;48.872;9.226;2023-12-22T10:17:10;7.23;;;3.10;;
359;SDS011;168;48.872;9.226;2023-12-22T10:19:39;14.43;;;4.47;;
359;SDS011;168;48.872;9.226;2023-12-22T10:22:07;9.50;;;2.83;;
359;SDS011;168;48.872;9.226;2023-12-22T10:24:40;7.73;;;3.40;;
359;SDS011;168;48.872;9.226;2023-12-22T10:27:18;12.90;;;4.00;;
359;SDS011;168;48.872;9.226;2023-12-22T10:29:54;9.50;;;2.73;;
359;SDS011;168;48.872;9.226;2023-12-22T10:32:26;14.53;;;3.67;;
359;SDS011;168;48.872;9.226;2023-12-22T10:34:53;10.70;;;3.70;;
359;SDS011;168;48.872;9.226;2023-12-22T10:37:24;13.33;;;3.50;;
359;SDS011;168;48.872;9.226;2023-12-22T10:40:08;14.07;;;4.30;;
359;SDS011;168;48.872;9.226;2023-12-22T10:42:40;7.53;;;2.83;;
359;SDS011;168;48.872;9.226;2023-12-22T10:45:09;9.67;;;3.70;;
359;SDS011;168;48.872;9.226;2023-12-22T10:47:37;10.80;;;3.53;;
359;SDS011;168;48.872;9.226;2023-12-22T10:50:06;7.80;;;3.63;;
359;SDS011;168;48.872;9.226;2023-12-22T10:52:33;8.10;;;3.57;;
359;SDS011;168;48.872;9.226;2023-12-22T10:55:01;7.07;;;2.77;;
359;SDS011;168;48.872;9.226;2023-12-22T10:57:28;5.90;;;2.20;;
359;SDS011;168;48.872;9.226;2023-12-22T11:00:03;7.40;;;2.77;;
359;SDS011;168;48.872;9.226;2023-12-22T11:02:34;4.40;;;1.73;;
359;SDS011;168;48.872;9.226;2023-12-22T11:05:02;9.03;;;2.77;;
359;SDS011;168;48.872;9.226;2023-12-22T11:07:32;7.47;;;2.27;;
359;SDS011;168;48.872;9.226;2023-12-22T11:10:03;5.60;;;1.80;;
359;SDS011;168;48.872;9.226;2023-12-22T11:12:31;5.83;;;2.37;;
359;SDS011;168;48.872;9.226;2023-12-22T11:15:01;4.30;;;1.53;;
359;SDS011;168;48.872;9.226;2023-12-22T11:17:33;4.40;;;2.03;;
359;SDS011;168;48.872;9.226;2023-12-22T11:20:01;4.97;;;2.07;;
359;SDS011;168;48.872;9.226;2023-12-22T11:22:29;8.77;;;1.57;;
359;SDS011;168;48.872;9.226;2023-12-22T11:24:59;6.50;;;1.53;;
359;SDS011;168;48.872;9.226;2023-12-22T11:27:29;7.70;;;1.87;;
359;SDS011;168;48.872;9.226;2023-12-22T11:29:58;3.10;;;1.37;;
359;SDS011;168;48.872;9.226;2023-12-22T11:32:27;3.07;;;1.43;;
359;SDS011;168;48.872;9.226;2023-12-22T11:34:57;6.87;;;1.57;;
359;SDS011;168;48.872;9.226;2023-12-22T11:37:27;5.60;;;1.70;;
359;SDS011;168;48.872;9.226;2023-12-22T11:39:57;6.73;;;1.53;;
359;SDS011;168;48.872;9.226;2023-12-22T11:42:31;3.63;;;1.20;;
359;SDS011;168;48.872;9.226;2023-12-22T11:45:05;3.93;;;1.40;;
359;SDS011;168;48.872;9.226;2023-12-22T11:47:36;5.10;;;1.83;;
359;SDS011;168;48.872;9.226;2023-12-22T11:50:06;5.37;;;1.67;;
359;SDS011;168;48.872;9.226;2023-12-22T11:52:36;3.37;;;1.20;;
359;SDS011;168;48.872;9.226;2023-12-22T11:55:04;6.47;;;1.20;;
359;SDS011;168;48.872;9.226;2023-12-22T11:57:33;3.40;;;1.40;;
359;SDS011;168;48.872;9.226;2023-12-22T12:00:01;2.77;;;1.13;;
359;SDS011;168;48.872;9.226;2023-12-22T12:02:32;2.93;;;1.23;;
359;SDS011;168;48.872;9.226;2023-12-22T12:05:01;3.33;;;1.10;;
359;SDS011;168;48.872;9.226;2023-12-22T12:07:40;1.90;;;1.00;;
359;SDS011;168;48.872;9.226;2023-12-22T12:10:10;2.23;;;0.90;;
359;SDS011;168;48.872;9.226;2023-12-22T12:12:38;3.10;;;1.00;;
359;SDS011;168;48.872;9.226;2023-12-22T12:15:09;2.37;;;0.90;;
359;SDS011;168;48.872;9.226;2023-12-22T12:17:40;1.90;;;0.70;;
359;SDS011;168;48.872;9.226;2023-12-22T12:20:09;1.77;;;0.90;;
359;SDS011;168;48.872;9.226;2023-12-22T12:22:37;3.23;;;1.17;;
359;SDS011;168;48.872;9.226;2023-12-22T12:25:08;1.73;;;0.90;;
359;SDS011;168;48.872;9.226;2023-12-22T12:27:36;2.00;;;0.93;;
359;SDS011;168;48.872;9.226;2023-12-22T12:30:11;1.90;;;0.90;;
359;SDS011;168;48.872;9.226;2023-12-22T12:32:43;1.77;;;0.77;;
359;SDS011;168;48.872;9.226;2023-12-22T12:35:11;2.70;;;0.90;;
359;SDS011;168;48.872;9.226;2023-12-22T12:37:40;2.33;;;1.07;;
359;SDS011;168;48.872;9.226;2023-12-22T12:40:09;2.70;;;1.20;;
359;SDS011;168;48.872;9.226;2023-12-22T12:42:38;3.07;;;1.20;;
359;SDS011;168;48.872;9.226;2023-12-22T12:45:06;2.73;;;1.10;;
359;SDS011;168;48.872;9.226;2023-12-22T12:47:34;2.87;;;1.00;;
359;SDS011;168;48.872;9.226;2023-12-22T12:50:02;2.10;;;1.20;;
359;SDS011;168;48.872;9.226;2023-12-22T12:52:30;5.50;;;0.90;;
359;SDS011;168;48.872;9.226;2023-12-22T12:54:57;1.70;;;0.80;;
359;SDS011;168;48.872;9.226;2023-12-22T12:57:28;2.53;;;1.00;;
359;SDS011;168;48.872;9.226;2023-12-22T12:59:56;3.20;;;0.90;;
359;SDS011;168;48.872;9.226;2023-12-22T13:02:23;1.47;;;0.87;;
359;SDS011;168;48.872;9.226;2023-12-22T13:04:52;1.50;;;0.70;;
359;SDS011;168;48.872;9.226;2023-12-22T13:07:25;1.83;;;0.77;;
359;SDS011;168;48.872;9.226;2023-12-22T13:09:53;1.93;;;0.77;;
359;SDS011;168;48.872;9.226;2023-12-22T13:12:22;1.30;;;0.50;;
359;SDS011;168;48.872;9.226;2023-12-22T13:14:52;1.70;;;0.70;;
359;SDS011;168;48.872;9.226;2023-12-22T13:17:19;4.13;;;1.57;;
359;SDS011;168;48.872;9.226;2023-12-22T13:19:47;1.87;;;0.73;;
359;SDS011;168;48.872;9.226;2023-12-22T13:22:15;1.30;;;0.60;;
359;SDS011;168;48.872;9.226;2023-12-22T13:24:54;1.40;;;0.67;;
359;SDS011;168;48.872;9.226;2023-12-22T13:27:21;1.20;;;0.50;;
359;SDS011;168;48.872;9.226;2023-12-22T13:29:49;1.27;;;0.53;;
359;SDS011;168;48.872;9.226;2023-12-22T13:32:19;2.70;;;0.60;;
359;SDS011;168;48.872;9.226;2023-12-22T13:34:50;1.30;;;0.50;;
359;SDS011;168;48.872;9.226;2023-12-22T13:37:18;1.27;;;0.50;;
359;SDS011;168;48.872;9.226;2023-12-22T13:39:46;1.50;;;0.60;;
359;SDS011;168;48.872;9.226;2023-12-22T13:42:14;1.43;;;0.50;;
359;SDS011;168;48.872;9.226;2023-12-22T13:44:43;1.50;;;0.40;;
359;SDS011;168;48.872;9.226;2023-12-22T13:47:13;1.80;;;0.50;;
359;SDS011;168;48.872;9.226;2023-12-22T13:49:43;2.30;;;0.90;;
359;SDS011;168;48.872;9.226;2023-12-22T13:55:06;1.77;;;0.70;;
359;SDS011;168;48.872;9.226;2023-12-22T13:57:37;1.50;;;0.60;;
359;SDS011;168;48.872;9.226;2023-12-22T14:02:53;1.70;;;0.70;;
359;SDS011;168;48.872;9.226;2023-12-22T14:05:22;1.53;;;0.60;;
359;SDS011;168;48.872;9.226;2023-12-22T14:07:50;2.80;;;0.70;;
359;SDS011;168;48.872;9.226;2023-12-22T14:10:18;1.30;;;0.67;;
359;SDS011;168;48.872;9.226;2023-12-22T14:12:45;1.50;;;0.63;;
359;SDS011;168;48.872;9.226;2023-12-22T14:15:12;1.50;;;0.80;;
359;SDS011;168;48.872;9.226;2023-12-22T14:17:40;1.53;;;0.60;;
359;SDS011;168;48.872;9.226;2023-12-22T14:20:08;1.70;;;0.50;;
359;SDS011;168;48.872;9.226;2023-12-22T14:22:38;1.30;;;0.70;;
359;SDS011;168;48.872;9.226;2023-12-22T14:25:06;1.30;;;0.60;;
359;SDS011;168;48.872;9.226;2023-12-22T14:27:35;1.30;;;0.60;;
359;SDS011;168;48.872;9.226;2023-12-22T14:30:03;1.27;;;0.43;;
359;SDS011;168;48.872;9.226;2023-12-22T14:32:31;2.00;;;0.70;;
359;SDS011;168;48.872;9.226;2023-12-22T14:34:58;1.20;;;0.50;;
359;SDS011;168;48.872;9.226;2023-12-22T14:37:26;1.80;;;0.63;;
359;SDS011;168;48.872;9.226;2023-12-22T14:39:58;1.77;;;0.50;;
359;SDS011;168;48.872;9.226;2023-12-22T14:42:25;1.80;;;0.63;;
359;SDS011;168;48.872;9.226;2023-12-22T14:44:53;1.30;;;0.50;;
359;SDS011;168;48.872;9.226;2023-12-22T14:47:20;1.87;;;0.57;;
359;SDS011;168;48.872;9.226;2023-12-22T14:49:46;1.90;;;0.60;;
359;SDS011;168;48.872;9.226;2023-12-22T14:52:14;1.50;;;0.70;;
359;SDS011;168;48.872;9.226;2023-12-22T14:54:41;1.40;;;0.50;;
359;SDS011;168;48.872;9.226;2023-12-22T14:57:10;1.50;;;0.60;;
359;SDS011;168;48.872;9.226;2023-12-22T14:59:37;1.30;;;0.53;;
359;SDS011;168;48.872;9.226;2023-12-22T15:02:06;2.83;;;1.00;;
359;SDS011;168;48.872;9.226;2023-12-22T15:04:42;1.70;;;0.77;;
359;SDS011;168;48.872;9.226;2023-12-22T15:07:10;1.90;;;0.80;;
359;SDS011;168;48.872;9.226;2023-12-22T15:09:41;1.93;;;0.77;;
359;SDS011;168;48.872;9.226;2023-12-22T15:12:09;1.70;;;0.90;;
359;SDS011;168;48.872;9.226;2023-12-22T15:14:38;1.40;;;0.63;;
359;SDS011;168;48.872;9.226;2023-12-22T15:17:10;4.37;;;1.90;;
359;SDS011;168;48.872;9.226;2023-12-22T15:19:39;1.40;;;0.80;;
359;SDS011;168;48.872;9.226;2023-12-22T15:22:07;2.13;;;0.80;;
359;SDS011;168;48.872;9.226;2023-12-22T15:24:36;1.73;;;0.80;;
359;SDS011;168;48.872;9.226;2023-12-22T15:27:05;1.27;;;0.60;;
359;SDS011;168;48.872;9.226;2023-12-22T15:29:34;1.40;;;0.70;;
359;SDS011;168;48.872;9.226;2023-12-22T15:32:02;1.40;;;0.60;;
359;SDS011;168;48.872;9.226;2023-12-22T15:34:29;1.97;;;1.00;;
359;SDS011;168;48.872;9.226;2023-12-22T15:36:57;1.20;;;0.50;;
359;SDS011;168;48.872;9.226;2023-12-22T15:39:24;1.53;;;0.90;;
359;SDS011;168;48.872;9.226;2023-12-22T15:41:51;1.40;;;0.70;;
359;SDS011;168;48.872;9.226;2023-12-22T15:44:19;1.60;;;0.87;;
359;SDS011;168;48.872;9.226;2023-12-22T15:46:47;1.70;;;0.60;;
359;SDS011;168;48.872;9.226;2023-12-22T15:49:15;1.90;;;0.83;;
359;SDS011;168;48.872;9.226;2023-12-22T15:51:42;1.87;;;0.80;;
359;SDS011;168;48.872;9.226;2023-12-22T15:54:09;1.90;;;0.93;;
359;SDS011;168;48.872;9.226;2023-12-22T15:56:37;1.50;;;0.90;;
359;SDS011;168;48.872;9.226;2023-12-22T15:59:04;1.83;;;0.70;;
359;SDS011;168;48.872;9.226;2023-12-22T16:01:32;1.47;;;0.60;;
359;SDS011;168;48.872;9.226;2023-12-22T16:04:00;2.50;;;0.80;;
359;SDS011;168;48.872;9.226;2023-12-22T16:06:28;3.47;;;1.40;;